Latest Weather Observations for Onslow Airport

IDW60801

Issued at 2:32 pm WST Monday 3 August 2015 (issued every 30 minutes, with the page automatically refreshed every 10 minutes)

About weather observations | Map of weather stations | Latest weather observations for WA | Other Formats
Station Details ID: 005017 Name: ONSLOW AIRPORT Lat: -21.67 Lon: 115.11 Height: 10.5 m
Data from the previous 72 hours. | See also: Recent months at Onslow Airport
Date/Time
WST
Temp
°C
App
Temp
°C
Dew
Point
Rel
Hum
%
Delta-T
°C
Wind Press
QNH
hPa
Press
MSL
hPa
Rain
since 9 am
mm
Dir
 
Spd
km/h
Gust
km/h
Spd
kts
Gust
kts
03/02:30pm 26.8 23.2 13.2 43 8.0 N 24 28 13 15 1019.6 1019.6 0.0
03/02:00pm 27.5 23.7 12.3 39 8.8 N 24 32 13 17 1019.7 1019.7 0.0
03/01:30pm 27.5 23.0 11.5 37 9.2 NNE 26 32 14 17 1020.1 1020.1 0.0
03/01:00pm 27.4 23.1 12.2 39 8.8 NNE 26 32 14 17 1020.5 1020.5 0.0
03/12:30pm 26.8 23.6 13.2 43 8.0 NNE 22 32 12 17 1021.0 1021.0 0.0
03/12:00pm 27.3 23.1 12.5 40 8.6 NNE 26 33 14 18 1021.3 1021.3 0.0
03/11:30am 28.1 24.1 10.3 33 10.0 ENE 22 32 12 17 1021.6 1021.6 0.0
03/11:00am 26.4 21.2 10.1 36 9.0 E 28 37 15 20 1022.0 1022.0 0.0
03/10:30am 25.6 20.4 10.2 38 8.5 ENE 28 35 15 19 1022.3 1022.3 0.0
03/10:00am 24.7 20.2 10.2 40 8.0 E 24 30 13 16 1022.4 1022.4 0.0
03/09:30am 23.7 19.2 10.0 42 7.5 ESE 24 28 13 15 1022.2 1022.2 0.0
03/09:00am 22.0 18.3 10.2 47 6.4 ESE 20 26 11 14 1021.9 1021.9 0.0
03/08:30am 20.0 16.4 9.9 52 5.4 ESE 19 22 10 12 1021.6 1021.6 0.0
03/08:00am 18.8 15.6 9.8 56 4.8 E 17 20 9 11 1021.2 1021.2 0.0
03/07:30am 17.5 15.1 9.9 61 4.0 ESE 13 17 7 9 1020.7 1020.7 0.0
03/07:00am 15.8 13.0 9.9 68 3.1 E 15 17 8 9 1020.4 1020.4 0.0
03/06:30am 15.8 12.9 9.7 67 3.2 ESE 15 19 8 10 1020.3 1020.3 0.0
03/06:00am 16.0 12.8 9.9 67 3.2 ESE 17 19 9 10 1019.8 1019.8 0.0
03/05:30am 16.3 13.6 10.4 68 3.1 ESE 15 19 8 10 1019.5 1019.5 0.0
03/05:00am 15.7 13.3 10.2 70 2.9 SSE 13 15 7 8 1019.2 1019.2 0.0
03/04:30am 15.8 13.4 9.9 68 3.1 SSE 13 15 7 8 1019.0 1019.0 0.0
03/04:00am 16.9 13.7 9.8 63 3.7 SSE 17 20 9 11 1019.0 1019.0 0.0
03/03:30am 17.7 14.7 10.6 63 3.8 SSE 17 20 9 11 1019.0 1019.0 0.0
03/03:00am 17.9 14.9 10.8 63 3.8 S 17 20 9 11 1018.8 1018.8 0.0
03/02:30am 17.8 14.8 10.7 63 3.8 S 17 20 9 11 1018.7 1018.7 0.0
03/02:00am 18.1 15.1 10.7 62 4.0 S 17 20 9 11 1018.7 1018.7 0.0
03/01:30am 18.1 15.2 11.0 63 3.8 S 17 20 9 11 1019.0 1019.0 0.0
03/01:00am 18.5 15.6 11.1 62 4.0 S 17 19 9 10 1019.1 1019.1 0.0
03/12:30am 18.4 15.7 11.7 65 3.7 S 17 20 9 11 1019.3 1019.3 0.0
03/12:00am 18.3 15.6 11.8 66 3.6 SSW 17 19 9 10 1019.5 1019.5 0.0
 
Date/Time
WST
Temp
°C
App
Temp
°C
Dew
Point
Rel
Hum
%
Delta-T
°C
Wind Press
QNH
hPa
Press
MSL
hPa
Rain
since 9 am
mm
Dir
 
Spd
km/h
Gust
km/h
Spd
kts
Gust
kts
02/11:30pm 18.1 17.2 12.5 70 3.1 SSW 9 13 5 7 1019.8 1019.8 0.0
02/11:00pm 18.1 16.4 12.3 69 3.2 S 13 15 7 8 1020.1 1020.1 0.0
02/10:30pm 18.2 16.0 13.3 73 2.8 SSE 17 19 9 10 1020.3 1020.3 0.0
02/10:00pm 18.0 16.3 13.7 76 2.4 S 15 19 8 10 1020.3 1020.3 0.0
02/09:30pm 18.5 17.6 14.8 79 2.2 SW 13 19 7 10 1020.2 1020.2 0.0
02/09:00pm 18.8 18.3 14.9 78 2.3 WSW 11 15 6 8 1020.1 1020.1 0.0
02/08:30pm 18.8 18.1 14.3 75 2.6 SW 11 11 6 6 1020.0 1020.0 0.0
02/08:00pm 19.1 18.3 14.1 73 2.9 W 11 11 6 6 1020.0 1020.0 0.0
02/07:30pm 19.0 17.3 12.3 65 3.7 W 13 13 7 7 1019.7 1019.7 0.0
02/07:00pm 20.3 18.4 13.0 63 4.1 WSW 15 17 8 9 1019.4 1019.4 0.0
02/06:30pm 21.0 20.1 14.9 68 3.6 WSW 13 15 7 8 1019.3 1019.3 0.0
02/06:00pm 22.3 21.0 11.1 49 6.2 NW 9 11 5 6 1019.0 1019.0 0.0
02/05:30pm 24.3 21.8 9.8 40 7.9 NNW 13 17 7 9 1018.8 1018.8 0.0
02/05:00pm 25.5 22.3 8.5 34 9.1 NNW 15 17 8 9 1018.8 1018.8 0.0
02/04:30pm 26.1 23.1 10.7 38 8.6 NNW 17 20 9 11 1018.7 1018.7 0.0
02/04:00pm 26.6 23.3 9.5 34 9.4 NNW 17 20 9 11 1018.6 1018.6 0.0
02/03:30pm 26.8 22.5 9.2 33 9.7 N 22 28 12 15 1018.8 1018.8 0.0
02/03:00pm 26.4 22.1 9.3 34 9.4 N 22 28 12 15 1019.0 1019.0 0.0
02/02:30pm 26.9 22.8 10.2 35 9.3 N 22 30 12 16 1019.1 1019.1 0.0
02/02:00pm 28.1 24.2 9.4 31 10.3 N 20 28 11 15 1019.1 1019.1 0.0
02/01:30pm 28.6 26.5 8.3 28 11.1 SE 9 15 5 8 1019.1 1019.1 0.0
02/01:00pm 28.3 25.5 8.6 29 10.8 SE 13 17 7 9 1019.4 1019.4 0.0
02/12:30pm 27.9 24.8 8.7 30 10.5 SE 15 19 8 10 1019.7 1019.7 0.0
02/12:00pm 27.1 23.7 9.0 32 9.9 SE 17 22 9 12 1020.0 1020.0 0.0
02/11:30am 26.7 22.6 8.6 32 9.8 SE 20 26 11 14 1020.3 1020.3 0.0
02/11:00am 26.4 22.1 9.3 34 9.4 SE 22 26 12 14 1020.8 1020.8 0.0
02/10:30am 25.3 20.2 9.2 36 8.8 SE 26 33 14 18 1021.1 1021.1 0.0
02/10:00am 24.2 19.3 9.8 40 7.9 SE 26 32 14 17 1021.2 1021.2 0.0
02/09:30am 22.9 18.6 10.7 46 6.7 SE 24 32 13 17 1021.2 1021.2 0.0
02/09:00am 20.7 16.3 10.5 52 5.5 SSE 24 32 13 17 1021.0 1021.0 0.0
02/08:30am 18.9 15.4 11.0 60 4.3 SSE 20 26 11 14 1020.6 1020.6 0.0
02/08:00am 17.2 13.7 11.0 67 3.3 S 20 24 11 13 1020.4 1020.4 0.0
02/07:30am 15.5 12.6 10.9 74 2.4 S 17 20 9 11 1020.1 1020.1 0.0
02/07:00am 14.8 11.8 10.8 77 2.1 S 17 20 9 11 1019.8 1019.8 0.0
02/06:30am 14.7 11.4 10.9 78 2.0 S 19 24 10 13 1019.6 1019.6 0.0
02/06:00am 15.0 11.8 11.2 78 2.0 S 19 20 10 11 1019.4 1019.4 0.0
02/05:30am 15.2 12.5 11.6 79 1.9 S 17 19 9 10 1019.0 1019.0 0.0
02/05:00am 15.2 12.4 11.4 78 2.0 S 17 22 9 12 1018.8 1018.8 0.0
02/04:30am 15.4 12.0 11.2 76 2.2 S 20 24 11 13 1019.0 1019.0 0.0
02/04:00am 15.8 13.0 11.4 75 2.4 S 17 20 9 11 1019.0 1019.0 0.0
02/03:30am 16.1 13.0 11.5 74 2.5 SSW 19 22 10 12 1019.0 1019.0 0.0
02/03:00am 16.4 13.3 11.6 73 2.6 SSW 19 24 10 13 1019.0 1019.0 0.0
02/02:30am 16.9 13.9 11.8 72 2.8 SSW 19 24 10 13 1019.3 1019.3 0.0
02/02:00am 17.3 14.1 11.8 70 3.0 SSW 20 28 11 15 1019.5 1019.5 0.0
02/01:30am 17.1 15.1 12.8 76 2.4 SSW 15 17 8 9 1019.6 1019.6 0.0
02/01:00am 17.4 15.5 12.9 75 2.5 SW 15 19 8 10 1019.7 1019.7 0.0
02/12:30am 17.9 15.7 13.4 75 2.5 SSW 17 20 9 11 1019.5 1019.5 0.0
02/12:00am 18.4 16.7 13.5 73 2.8 SSW 15 19 8 10 1019.6 1019.6 0.0
 
Date/Time
WST
Temp
°C
App
Temp
°C
Dew
Point
Rel
Hum
%
Delta-T
°C
Wind Press
QNH
hPa
Press
MSL
hPa
Rain
since 9 am
mm
Dir
 
Spd
km/h
Gust
km/h
Spd
kts
Gust
kts
01/11:30pm 18.8 16.1 13.4 71 3.1 SSW 20 26 11 14 1019.7 1019.7 0.0
01/11:00pm 19.3 17.0 14.1 72 3.0 SW 19 24 10 13 1019.7 1019.7 0.0
01/10:30pm 19.9 17.5 14.3 70 3.2 SW 20 28 11 15 1019.6 1019.6 0.0
01/10:00pm 19.9 18.5 15.5 76 2.6 SW 17 24 9 13 1019.6 1019.6 0.0
01/09:30pm 19.7 18.8 15.8 78 2.3 WSW 15 19 8 10 1019.5 1019.5 0.0
01/09:00pm 19.7 19.3 16.2 80 2.1 WSW 13 17 7 9 1019.3 1019.3 0.0
01/08:30pm 19.9 18.7 16.2 79 2.2 WSW 17 20 9 11 1019.2 1019.2 0.0
01/08:00pm 19.8 18.9 15.9 78 2.3 WSW 15 15 8 8 1018.8 1018.8 0.0
01/07:30pm 20.5 19.7 16.1 76 2.6 W 15 20 8 11 1018.6 1018.6 0.0
01/07:00pm 21.0 19.3 15.8 72 3.1 W 19 22 10 12 1018.3 1018.3 0.0
01/06:30pm 21.2 19.3 15.3 69 3.5 W 19 24 10 13 1018.0 1018.0 0.0
01/06:00pm 21.7 19.5 14.8 65 4.1 W 20 26 11 14 1017.7 1017.7 0.0
01/05:30pm 22.7 19.9 15.3 63 4.4 WNW 24 30 13 16 1017.6 1017.6 0.0
01/05:00pm 23.4 20.5 15.2 60 4.9 WNW 24 30 13 16 1017.4 1017.4 0.0
01/04:30pm 25.5 22.5 13.7 48 6.9 W 22 32 12 17 1017.2 1017.2 0.0
01/04:00pm 25.8 22.0 13.6 47 7.2 WNW 26 33 14 18 1017.1 1017.1 0.0
01/03:30pm 25.8 21.3 12.6 44 7.6 W 28 35 15 19 1017.2 1017.2 0.0
01/03:00pm 25.8 21.6 13.6 47 7.2 WNW 28 35 15 19 1017.4 1017.4 0.0
01/02:30pm 25.5 21.4 13.7 48 6.9 W 28 37 15 20 1017.7 1017.7 0.0
01/02:00pm 25.0 21.2 14.8 53 6.1 WNW 28 35 15 19 1017.8 1017.8 0.0
01/01:30pm 25.9 23.6 14.1 48 7.0 W 19 28 10 15 1018.0 1018.0 0.0
01/01:00pm 26.4 23.5 10.9 38 8.7 SW 17 24 9 13 1018.3 1018.3 0.0
01/12:30pm 26.3 23.2 11.6 40 8.4 SSW 19 28 10 15 1018.7 1018.7 0.0
01/12:00pm 25.9 23.1 11.3 40 8.2 SW 17 28 9 15 1019.2 1019.2 0.0
01/11:30am 24.5 21.9 13.1 49 6.6 SW 19 24 10 13 1019.7 1019.7 0.0
01/11:00am 24.7 22.1 13.9 51 6.3 SSW 20 30 11 16 1020.0 1020.0 0.0
01/10:30am 24.0 22.0 15.0 57 5.4 S 19 26 10 14 1020.2 1020.2 0.0
01/10:00am 23.4 21.4 15.5 61 4.7 S 20 28 11 15 1020.2 1020.2 0.0
01/09:30am 23.0 21.0 15.6 63 4.4 SSE 20 24 11 13 1020.2 1020.2 0.0
01/09:00am 22.0 20.0 16.5 71 3.3 S 22 28 12 15 1019.8 1019.8 0.0
01/08:30am 21.2 19.3 16.8 76 2.7 S 22 30 12 16 1019.4 1019.4 0.0
01/08:00am 19.9 19.2 17.3 85 1.6 S 17 20 9 11 1018.9 1018.9 0.0
01/07:30am 19.2 18.5 17.3 89 1.2 S 17 20 9 11 1018.7 1018.7 0.0
01/07:00am 19.0 18.7 17.3 90 1.0 S 15 22 8 12 1018.4 1018.4 0.0
01/06:30am 19.0 19.1 17.5 91 0.9 S 13 19 7 10 1018.2 1018.2 0.0
01/06:00am 19.1 19.0 17.8 92 0.8 SSW 15 19 8 10 1017.9 1017.9 0.0
01/05:30am 19.1 19.4 17.9 93 0.7 SW 13 17 7 9 1017.7 1017.7 0.0
01/05:00am 18.9 18.4 17.7 93 0.7 SSW 17 20 9 11 1017.4 1017.4 0.0
01/04:30am 18.9 19.1 17.6 92 0.8 SSW 13 17 7 9 1017.2 1017.2 0.0
01/04:00am 19.1 19.3 17.6 91 0.9 SSW 13 17 7 9 1017.2 1017.2 0.0
01/03:30am 19.3 19.1 17.6 90 1.0 SSW 15 17 8 9 1017.3 1017.3 0.0
01/03:00am 19.3 19.5 17.6 90 1.0 SW 13 15 7 8 1017.3 1017.3 0.0
01/02:30am 19.7 19.9 17.7 88 1.2 SW 13 15 7 8 1017.4 1017.4 0.0
01/02:00am 19.4 20.3 17.5 89 1.2 SW 9 13 5 7 1017.5 1017.5 0.0
01/01:30am 19.2 20.0 17.2 88 1.2 SW 9 11 5 6 1017.7 1017.7 0.0
01/01:00am 19.5 20.4 17.5 88 1.2 SW 9 11 5 6 1017.8 1017.8 0.0
01/12:30am 20.0 20.1 17.4 85 1.6 SW 13 17 7 9 1017.8 1017.8 0.0
01/12:00am 20.4 20.6 17.6 84 1.7 SW 13 19 7 10 1017.8 1017.8 0.0
 
Date/Time
WST
Temp
°C
App
Temp
°C
Dew
Point
Rel
Hum
%
Delta-T
°C
Wind Press
QNH
hPa
Press
MSL
hPa
Rain
since 9 am
mm
Dir
 
Spd
km/h
Gust
km/h
Spd
kts
Gust
kts
31/11:30pm 20.4 19.7 17.4 83 1.8 SW 17 20 9 11 1017.7 1017.7 0.0
31/11:00pm 20.7 19.6 17.3 81 2.1 SW 19 24 10 13 1017.8 1017.8 0.0
31/10:30pm 20.7 20.2 17.7 83 1.8 SW 17 22 9 12 1017.8 1017.8 0.0
31/10:00pm 20.7 20.1 17.5 82 2.0 WSW 17 20 9 11 1017.6 1017.6 0.0
31/09:30pm 20.9 21.1 17.7 82 2.0 WSW 13 19 7 10 1017.5 1017.5 0.0
31/09:00pm 21.2 21.2 18.2 83 1.9 WSW 15 19 8 10 1017.4 1017.4 0.0
31/08:30pm 21.3 21.7 18.9 86 1.5 WSW 15 20 8 11 1017.2 1017.2 0.0
31/08:00pm 21.5 21.6 19.2 87 1.5 W 17 20 9 11 1016.8 1016.8 0.0
31/07:30pm 21.6 22.1 19.3 87 1.5 W 15 19 8 10 1016.5 1016.5 0.0
31/07:00pm 21.7 22.8 19.6 88 1.3 W 13 17 7 9 1016.2 1016.2 0.0
31/06:30pm 21.8 22.9 19.7 88 1.3 WNW 13 17 7 9 1015.7 1015.7 0.0
31/06:00pm 22.5 23.0 20.0 86 1.6 WNW 17 22 9 12 1015.6 1015.6 0.0
31/05:30pm 23.5 23.4 20.0 81 2.3 WNW 20 26 11 14 1015.6 1015.6 0.0
31/05:00pm 24.1 23.0 19.4 75 3.0 WNW 24 30 13 16 1015.5 1015.5 0.0
31/04:30pm 24.9 23.0 18.6 68 4.0 WNW 26 32 14 17 1015.2 1015.2 0.0
31/04:00pm 26.1 23.8 17.5 59 5.4 W 26 30 14 16 1015.2 1015.2 0.0
31/03:30pm 26.6 24.4 16.8 55 6.1 W 24 30 13 16 1015.2 1015.2 0.0
31/03:00pm 26.6 25.3 18.2 60 5.3 WNW 22 28 12 15 1015.2 1015.2 0.0

Other Formats:

Comma delimited format used in spreadsheet applications
http://www.bom.gov.au/fwo/IDW60801/IDW60801.95305.axf

JavaScript Object Notation format (JSON) in row-major order
http://www.bom.gov.au/fwo/IDW60801/IDW60801.95305.json